Observation data for Northfield on 05/25/2020      Previous  Date  Next       Current Mesonet Observations  Soil Data  Daily Summary Page  Observations in Plain Language
KNOR 250500Z 09018G28KT 16/15 A2984 RMK A01 T01560146  RH  098%=      5-min Rain = 0.02
KNOR 250505Z 09020G28KT 15/14 A2984 RMK A01 T01500140  RH  098%=      5-min Rain = 0.01
KNOR 250510Z 09019G26KT 15/14 A2983 RMK A01 T01470138  RH  098%=      5-min Rain = 0.02
KNOR 250515Z 08022G32KT 15/14 A298 RMK A01 T01460136  RH  098%=      5-min Rain = 0.01
KNOR 250520Z 07026G35KT 15/14 A2975 RMK A01 T01450135  RH  098%=      5-min Rain = 0.01
KNOR 250525Z 07027G40KT 14/13 A2973 RMK A01 T01440134  RH  098%=      5-min Rain = 0.01
KNOR 250530Z 07027G37KT 14/13 A2973 RMK A01 T01430134  RH  098%=      5-min Rain = 0
KNOR 250535Z 07025G34KT 14/13 A2973 RMK A01 T01430134  RH  098%=      5-min Rain = 0
KNOR 250540Z 08024G37KT 14/13 A2975 RMK A01 T01440134  RH  098%=      5-min Rain = 0
KNOR 250545Z 08020G32KT 15/14 A2976 RMK A01 T01450135  RH  098%=      5-min Rain = 0
KNOR 250550Z 08018G28KT 15/14 A2976 RMK A01 T01460135  RH  097%=      5-min Rain = 0
KNOR 250555Z 09018G27KT 15/14 A2977 RMK A01 T01480135  RH  096%=      5-min Rain = 0
KNOR 250600Z 09017G27KT 15/14 A2977 RMK A01 T01500135  RH  094%=      5-min Rain = 0
KNOR 250605Z 09017G24KT 15/13 A2976 RMK A01 T01520134  RH  093%=      5-min Rain = 0
KNOR 250610Z 09016G24KT 15/13 A2976 RMK A01 T01520133  RH  092%=      5-min Rain = 0
KNOR 250615Z 09016G25KT 15/13 A2977 RMK A01 T01520133  RH  092%=      5-min Rain = 0
KNOR 250620Z 09017G26KT 15/13 A2977 RMK A01 T01510134  RH  093%=      5-min Rain = 0
KNOR 250625Z 10017G28KT 15/13 A2977 RMK A01 T01500134  RH  094%=      5-min Rain = 0
KNOR 250630Z 10016G29KT 15/14 A2978 RMK A01 T01490135  RH  095%=      5-min Rain = 0
KNOR 250635Z 10015G24KT 15/14 A2978 RMK A01 T01500135  RH  094%=      5-min Rain = 0
KNOR 250640Z 09014G22KT 15/14 A2979 RMK A01 T01530135  RH  093%=      5-min Rain = 0
KNOR 250645Z 10015G21KT 15/13 A2979 RMK A01 T01540134  RH  091%=      5-min Rain = 0
KNOR 250650Z 09013G20KT 16/13 A298 RMK A01 T01560133  RH  090%=      5-min Rain = 0
KNOR 250655Z 10011G18KT 16/13 A298 RMK A01 T01550133  RH  090%=      5-min Rain = 0
KNOR 250700Z 11010G15KT 16/13 A2981 RMK A01 T01550133  RH  090%=      5-min Rain = 0
KNOR 250705Z 11010KT 15/13 A298 RMK A01 T01540134  RH  091%=      5-min Rain = 0
KNOR 250710Z 09010KT 15/13 A298 RMK A01 T01540133  RH  091%=      5-min Rain = 0
KNOR 250715Z 08009G14KT 15/13 A298 RMK A01 T01540132  RH  090%=      5-min Rain = 0
KNOR 250720Z 08007KT 15/13 A298 RMK A01 T01540132  RH  090%=      5-min Rain = 0
KNOR 250725Z 12008KT 15/13 A2981 RMK A01 T01540132  RH  090%=      5-min Rain = 0
KNOR 250730Z 14007KT 15/13 A2982 RMK A01 T01530133  RH  091%=      5-min Rain = 0
KNOR 250735Z 11004KT 15/13 A2981 RMK A01 T01520133  RH  092%=      5-min Rain = 0
KNOR 250740Z 14004KT 15/13 A2982 RMK A01 T01520133  RH  092%=      5-min Rain = 0
KNOR 250745Z 15002KT 15/13 A2982 RMK A01 T01520134  RH  092%=      5-min Rain = 0
KNOR 250750Z 18003KT 15/13 A2982 RMK A01 T01520133  RH  092%=      5-min Rain = 0
KNOR 250755Z 18002KT 15/13 A2981 RMK A01 T01500133  RH  093%=      5-min Rain = 0
KNOR 250800Z 31000KT 15/13 A2981 RMK A01 T01510133  RH  093%=      5-min Rain = 0
KNOR 250805Z 21001KT 15/13 A2981 RMK A01 T01520134  RH  093%=      5-min Rain = 0
KNOR 250810Z 28003KT 15/13 A2981 RMK A01 T01520133  RH  092%=      5-min Rain = 0
KNOR 250815Z 28004KT 15/13 A2981 RMK A01 T01510134  RH  093%=      5-min Rain = 0
KNOR 250820Z 30006KT 15/14 A2981 RMK A01 T01510135  RH  094%=      5-min Rain = 0
KNOR 250825Z 30005KT 15/14 A2981 RMK A01 T01510136  RH  095%=      5-min Rain = 0
KNOR 250830Z 29004KT 15/14 A2981 RMK A01 T01510136  RH  094%=      5-min Rain = 0
KNOR 250835Z 26005KT 15/14 A2981 RMK A01 T01510135  RH  094%=      5-min Rain = 0
KNOR 250840Z 26005KT 15/14 A2981 RMK A01 T01510135  RH  094%=      5-min Rain = 0
KNOR 250845Z 25005KT 15/14 A2981 RMK A01 T01500135  RH  094%=      5-min Rain = 0
KNOR 250850Z 26007KT 15/14 A2981 RMK A01 T01500135  RH  094%=      5-min Rain = 0
KNOR 250855Z 25007KT 15/14 A298 RMK A01 T01500135  RH  094%=      5-min Rain = 0
KNOR 250900Z 25006KT 15/14 A298 RMK A01 T01500135  RH  095%=      5-min Rain = 0
KNOR 250905Z 27006KT 15/14 A2981 RMK A01 T01500135  RH  094%=      5-min Rain = 0
KNOR 250910Z 27006KT 15/14 A2981 RMK A01 T01500135  RH  094%=      5-min Rain = 0
KNOR 250915Z 28005KT 15/13 A2981 RMK A01 T01500134  RH  094%=      5-min Rain = 0
KNOR 250920Z 28005KT 15/13 A2981 RMK A01 T01500134  RH  094%=      5-min Rain = 0
KNOR 250925Z 27005KT 15/13 A2981 RMK A01 T01500134  RH  094%=      5-min Rain = 0
KNOR 250930Z 27007KT 15/13 A2981 RMK A01 T01500134  RH  094%=      5-min Rain = 0
KNOR 250935Z 27008KT 15/13 A2981 RMK A01 T01500134  RH  094%=      5-min Rain = 0
KNOR 250940Z 27008KT 15/13 A298 RMK A01 T01500134  RH  094%=      5-min Rain = 0
KNOR 250945Z 27007KT 15/13 A2981 RMK A01 T01500134  RH  094%=      5-min Rain = 0
KNOR 250950Z 28008KT 15/14 A2981 RMK A01 T01510135  RH  094%=      5-min Rain = 0
KNOR 250955Z 28007KT 15/14 A2981 RMK A01 T01510136  RH  094%=      5-min Rain = 0
KNOR 251000Z 29007KT 15/14 A2981 RMK A01 T01520136  RH  094%=      5-min Rain = 0
KNOR 251005Z 28006KT 15/14 A2982 RMK A01 T01530137  RH  094%=      5-min Rain = 0
KNOR 251010Z 29006KT 15/14 A2982 RMK A01 T01530137  RH  094%=      5-min Rain = 0
KNOR 251015Z 28006KT 15/14 A2982 RMK A01 T01530137  RH  094%=      5-min Rain = 0
KNOR 251020Z 26006KT 15/14 A2983 RMK A01 T01530137  RH  094%=      5-min Rain = 0
KNOR 251025Z 28006KT 15/14 A2983 RMK A01 T01530137  RH  094%=      5-min Rain = 0
KNOR 251030Z 27007KT 15/14 A2983 RMK A01 T01530137  RH  094%=      5-min Rain = 0
KNOR 251035Z 28008KT 15/14 A2983 RMK A01 T01540137  RH  093%=      5-min Rain = 0
KNOR 251040Z 29008KT 16/14 A2983 RMK A01 T01550136  RH  092%=      5-min Rain = 0
KNOR 251045Z 30008KT 16/14 A2984 RMK A01 T01550135  RH  091%=      5-min Rain = 0
KNOR 251050Z 29008KT 16/14 A2984 RMK A01 T01560135  RH  091%=      5-min Rain = 0
KNOR 251055Z 30008KT 16/13 A2984 RMK A01 T01560134  RH  091%=      5-min Rain = 0
KNOR 251100Z 30008KT 16/13 A2984 RMK A01 T01560134  RH  090%=      5-min Rain = 0
KNOR 251105Z 29007KT 16/13 A2984 RMK A01 T01560134  RH  090%=      5-min Rain = 0
KNOR 251110Z 30007KT 16/13 A2984 RMK A01 T01570134  RH  090%=      5-min Rain = 0
KNOR 251115Z 31009KT 16/13 A2985 RMK A01 T01580134  RH  089%=      5-min Rain = 0
KNOR 251120Z 31010G15KT 16/13 A2985 RMK A01 T01600134  RH  088%=      5-min Rain = 0
KNOR 251125Z 32010KT 16/13 A2986 RMK A01 T01620134  RH  087%=      5-min Rain = 0
KNOR 251130Z 32010KT 16/13 A2987 RMK A01 T01620134  RH  087%=      5-min Rain = 0
KNOR 251135Z 33011KT 16/13 A2987 RMK A01 T01630134  RH  087%=      5-min Rain = 0
KNOR 251140Z 33011G18KT 16/13 A2988 RMK A01 T01630134  RH  086%=      5-min Rain = 0
KNOR 251145Z 34012G18KT 16/13 A2988 RMK A01 T01640133  RH  086%=      5-min Rain = 0
KNOR 251150Z 34010G16KT 16/13 A2989 RMK A01 T01630133  RH  086%=      5-min Rain = 0
KNOR 251155Z 34012G17KT 16/13 A2989 RMK A01 T01630133  RH  085%=      5-min Rain = 0
KNOR 251200Z 34010G15KT 16/13 A299 RMK A01 T01630132  RH  085%=      5-min Rain = 0
KNOR 251205Z 34010G15KT 16/13 A299 RMK A01 T01620131  RH  085%=      5-min Rain = 0
KNOR 251210Z 34010KT 16/13 A299 RMK A01 T01620129  RH  084%=      5-min Rain = 0
KNOR 251215Z 34007KT 16/13 A299 RMK A01 T01610129  RH  084%=      5-min Rain = 0
KNOR 251220Z 35009KT 16/13 A299 RMK A01 T01610126  RH  083%=      5-min Rain = 0
KNOR 251225Z 35010KT 16/12 A299 RMK A01 T01600122  RH  081%=      5-min Rain = 0
KNOR 251230Z 34009KT 16/12 A299 RMK A01 T01600116  RH  078%=      5-min Rain = 0
KNOR 251235Z 34008KT 16/11 A299 RMK A01 T01590114  RH  078%=      5-min Rain = 0
KNOR 251240Z 34007KT 16/11 A299 RMK A01 T01580113  RH  077%=      5-min Rain = 0
KNOR 251245Z 34006KT 16/11 A2991 RMK A01 T01580114  RH  078%=      5-min Rain = 0
KNOR 251250Z 34005KT 16/12 A2991 RMK A01 T01580116  RH  079%=      5-min Rain = 0
KNOR 251255Z 35005KT 16/12 A2991 RMK A01 T01590117  RH  079%=      5-min Rain = 0
KNOR 251300Z 35007G13KT 16/12 A2991 RMK A01 T01590116  RH  078%=      5-min Rain = 0
KNOR 251305Z 35009KT 16/11 A2991 RMK A01 T01600111  RH  075%=      5-min Rain = 0
KNOR 251310Z 35011KT 16/11 A2991 RMK A01 T01600108  RH  074%=      5-min Rain = 0
KNOR 251315Z 35010G16KT 16/11 A2991 RMK A01 T01590108  RH  074%=      5-min Rain = 0
KNOR 251320Z 36011KT 16/11 A2991 RMK A01 T01590106  RH  073%=      5-min Rain = 0
KNOR 251325Z 35012G17KT 16/11 A2991 RMK A01 T01590106  RH  073%=      5-min Rain = 0
KNOR 251330Z 35011KT 16/11 A2991 RMK A01 T01590107  RH  074%=      5-min Rain = 0
KNOR 251335Z 35011KT 16/11 A2991 RMK A01 T01600108  RH  074%=      5-min Rain = 0
KNOR 251340Z 35012KT 16/11 A2991 RMK A01 T01600107  RH  073%=      5-min Rain = 0
KNOR 251345Z 35013KT 16/11 A2991 RMK A01 T01600106  RH  073%=      5-min Rain = 0
KNOR 251350Z 35012G17KT 16/11 A2992 RMK A01 T01600106  RH  073%=      5-min Rain = 0
KNOR 251355Z 35012G19KT 16/11 A2992 RMK A01 T01600107  RH  073%=      5-min Rain = 0
KNOR 251400Z 34011G16KT 16/11 A2991 RMK A01 T01610107  RH  073%=      5-min Rain = 0
KNOR 251405Z 34013G19KT 16/11 A2992 RMK A01 T01610106  RH  072%=      5-min Rain = 0
KNOR 251410Z 34012G18KT 16/11 A2991 RMK A01 T01620106  RH  072%=      5-min Rain = 0
KNOR 251415Z 34011G16KT 16/11 A2991 RMK A01 T01630108  RH  072%=      5-min Rain = 0
KNOR 251420Z 33012G18KT 17/11 A2992 RMK A01 T01650108  RH  072%=      5-min Rain = 0
KNOR 251425Z 34014G19KT 17/11 A2992 RMK A01 T01650107  RH  071%=      5-min Rain = 0
KNOR 251430Z 33012G17KT 17/11 A2992 RMK A01 T01660107  RH  071%=      5-min Rain = 0
KNOR 251435Z 34013G19KT 17/11 A2992 RMK A01 T01670108  RH  071%=      5-min Rain = 0
KNOR 251440Z 34012KT 17/11 A2993 RMK A01 T01680109  RH  070%=      5-min Rain = 0
KNOR 251445Z 34011KT 17/11 A2993 RMK A01 T01700111  RH  070%=      5-min Rain = 0
KNOR 251450Z 34011G17KT 17/11 A2993 RMK A01 T01720112  RH  070%=      5-min Rain = 0
KNOR 251455Z 34011G16KT 17/11 A2994 RMK A01 T01710110  RH  070%=      5-min Rain = 0
KNOR 251500Z 34011KT 17/11 A2994 RMK A01 T01710110  RH  070%=      5-min Rain = 0
KNOR 251505Z 35011KT 17/11 A2994 RMK A01 T01720110  RH  069%=      5-min Rain = 0
KNOR 251510Z 35010KT 17/11 A2994 RMK A01 T01720111  RH  069%=      5-min Rain = 0
KNOR 251515Z 35010G15KT 17/11 A2994 RMK A01 T01740112  RH  069%=      5-min Rain = 0
KNOR 251520Z 34010KT 18/11 A2993 RMK A01 T01760113  RH  069%=      5-min Rain = 0
KNOR 251525Z 34011KT 18/11 A2993 RMK A01 T01780113  RH  068%=      5-min Rain = 0
KNOR 251530Z 34010G15KT 18/11 A2993 RMK A01 T01770112  RH  068%=      5-min Rain = 0
KNOR 251535Z 35011KT 18/11 A2993 RMK A01 T01790113  RH  068%=      5-min Rain = 0
KNOR 251540Z 36011KT 18/11 A2994 RMK A01 T01820114  RH  067%=      5-min Rain = 0
KNOR 251545Z 00010KT 19/12 A2994 RMK A01 T01850115  RH  066%=      5-min Rain = 0
KNOR 251550Z 36010KT 18/11 A2994 RMK A01 T01840114  RH  066%=      5-min Rain = 0
KNOR 251555Z 35010KT 19/12 A2994 RMK A01 T01860116  RH  066%=      5-min Rain = 0
KNOR 251600Z 34010KT 19/12 A2995 RMK A01 T01880117  RH  066%=      5-min Rain = 0
KNOR 251605Z 34010KT 19/12 A2995 RMK A01 T01850115  RH  066%=      5-min Rain = 0
KNOR 251610Z 33009G14KT 19/12 A2995 RMK A01 T01880117  RH  066%=      5-min Rain = 0
KNOR 251615Z 35008G14KT 19/12 A2995 RMK A01 T01890117  RH  066%=      5-min Rain = 0
KNOR 251620Z 35009KT 19/12 A2995 RMK A01 T01910119  RH  065%=      5-min Rain = 0
KNOR 251625Z 34009KT 19/12 A2995 RMK A01 T01900119  RH  066%=      5-min Rain = 0
KNOR 251630Z 35009KT 20/12 A2995 RMK A01 T01950121  RH  065%=      5-min Rain = 0
KNOR 251635Z 34010KT 19/12 A2995 RMK A01 T01920119  RH  065%=      5-min Rain = 0
KNOR 251640Z 34010KT 19/12 A2995 RMK A01 T01880119  RH  066%=      5-min Rain = 0
KNOR 251645Z 34010KT 19/12 A2995 RMK A01 T01890120  RH  067%=      5-min Rain = 0
KNOR 251650Z 34012KT 19/12 A2995 RMK A01 T01870118  RH  067%=      5-min Rain = 0
KNOR 251655Z 34011KT 19/12 A2995 RMK A01 T01870119  RH  067%=      5-min Rain = 0
KNOR 251700Z 35012KT 19/12 A2995 RMK A01 T01900120  RH  066%=      5-min Rain = 0
KNOR 251705Z 35011KT 19/12 A2995 RMK A01 T01940121  RH  065%=      5-min Rain = 0
KNOR 251710Z 36011KT 20/12 A2995 RMK A01 T01950121  RH  065%=      5-min Rain = 0
KNOR 251715Z 34010G17KT 20/12 A2995 RMK A01 T01960123  RH  065%=      5-min Rain = 0
KNOR 251720Z 35011KT 20/12 A2995 RMK A01 T01950121  RH  065%=      5-min Rain = 0
KNOR 251725Z 35011KT 19/12 A2995 RMK A01 T01930120  RH  065%=      5-min Rain = 0
KNOR 251730Z 34010G16KT 20/12 A2995 RMK A01 T01950122  RH  065%=      5-min Rain = 0
KNOR 251735Z 34011KT 20/12 A2995 RMK A01 T01950121  RH  065%=      5-min Rain = 0
KNOR 251740Z 34011KT 19/12 A2995 RMK A01 T01930121  RH  065%=      5-min Rain = 0
KNOR 251745Z 00013G18KT 19/12 A2995 RMK A01 T01940120  RH  065%=      5-min Rain = 0
KNOR 251750Z 00011KT 19/12 A2995 RMK A01 T01940120  RH  064%=      5-min Rain = 0
KNOR 251755Z 00010KT 20/12 A2995 RMK A01 T01950121  RH  065%=      5-min Rain = 0
KNOR 251800Z 36011G16KT 20/12 A2995 RMK A01 T01970123  RH  065%=      5-min Rain = 0
KNOR 251805Z 36011KT 20/12 A2994 RMK A01 T01960121  RH  064%=      5-min Rain = 0
KNOR 251810Z 35010G15KT 20/12 A2994 RMK A01 T01970121  RH  064%=      5-min Rain = 0
KNOR 251815Z 36011G16KT 20/12 A2994 RMK A01 T02000122  RH  063%=      5-min Rain = 0
KNOR 251820Z 35009KT 21/13 A2993 RMK A01 T02050125  RH  063%=      5-min Rain = 0
KNOR 251825Z 00011G16KT 21/12 A2993 RMK A01 T02060123  RH  061%=      5-min Rain = 0
KNOR 251830Z 35009KT 21/12 A2993 RMK A01 T02080123  RH  060%=      5-min Rain = 0
KNOR 251835Z 36009G14KT 22/13 A2993 RMK A01 T02150127  RH  060%=      5-min Rain = 0
KNOR 251840Z 36009G16KT 22/13 A2993 RMK A01 T02160126  RH  059%=      5-min Rain = 0
KNOR 251845Z 35009G14KT 21/12 A2993 RMK A01 T02120123  RH  059%=      5-min Rain = 0
KNOR 251850Z 35009KT 21/13 A2993 RMK A01 T02110125  RH  060%=      5-min Rain = 0
KNOR 251855Z 00012G17KT 21/12 A2993 RMK A01 T02110123  RH  059%=      5-min Rain = 0
KNOR 251900Z 36010KT 21/13 A2992 RMK A01 T02130125  RH  059%=      5-min Rain = 0
KNOR 251905Z 35011KT 21/12 A2992 RMK A01 T02130124  RH  059%=      5-min Rain = 0
KNOR 251910Z 35009KT 21/13 A2992 RMK A01 T02140125  RH  059%=      5-min Rain = 0
KNOR 251915Z 00011KT 21/12 A2992 RMK A01 T02140124  RH  058%=      5-min Rain = 0
KNOR 251920Z 00009KT 21/12 A2992 RMK A01 T02120124  RH  059%=      5-min Rain = 0
KNOR 251925Z 35009KT 21/12 A2992 RMK A01 T02120124  RH  060%=      5-min Rain = 0
KNOR 251930Z 01009KT 21/13 A2992 RMK A01 T02140126  RH  060%=      5-min Rain = 0
KNOR 251935Z 01010KT 21/12 A2992 RMK A01 T02100124  RH  060%=      5-min Rain = 0
KNOR 251940Z 35010G15KT 21/12 A2992 RMK A01 T02070124  RH  061%=      5-min Rain = 0
KNOR 251945Z 35010KT 21/13 A2992 RMK A01 T02080126  RH  062%=      5-min Rain = 0
KNOR 251950Z 36011KT 21/13 A2992 RMK A01 T02100125  RH  060%=      5-min Rain = 0
KNOR 251955Z 34010KT 21/13 A2992 RMK A01 T02140126  RH  059%=      5-min Rain = 0
KNOR 252000Z 35010G15KT 21/13 A2992 RMK A01 T02100125  RH  061%=      5-min Rain = 0
KNOR 252005Z 01011KT 21/12 A2992 RMK A01 T02110124  RH  060%=      5-min Rain = 0
KNOR 252010Z 36010G16KT 22/13 A2992 RMK A01 T02170126  RH  058%=      5-min Rain = 0
KNOR 252015Z 35011G16KT 21/12 A2992 RMK A01 T02140124  RH  059%=      5-min Rain = 0
KNOR 252020Z 00011KT 21/13 A2992 RMK A01 T02130125  RH  059%=      5-min Rain = 0
KNOR 252025Z 00011KT 22/12 A2992 RMK A01 T02160123  RH  058%=      5-min Rain = 0
KNOR 252030Z 36009KT 22/12 A2991 RMK A01 T02160123  RH  057%=      5-min Rain = 0
KNOR 252035Z 01011KT 21/12 A2991 RMK A01 T02140123  RH  058%=      5-min Rain = 0
KNOR 252040Z 02010KT 22/12 A2991 RMK A01 T02160123  RH  058%=      5-min Rain = 0
KNOR 252045Z 00010KT 22/12 A2991 RMK A01 T02160122  RH  057%=      5-min Rain = 0
KNOR 252050Z 01011KT 22/12 A2991 RMK A01 T02150124  RH  059%=      5-min Rain = 0
KNOR 252055Z 01009KT 22/13 A2991 RMK A01 T02150126  RH  059%=      5-min Rain = 0
KNOR 252100Z 35011KT 22/12 A2991 RMK A01 T02160124  RH  058%=      5-min Rain = 0
KNOR 252105Z 35010G15KT 22/13 A2991 RMK A01 T02200127  RH  058%=      5-min Rain = 0
KNOR 252110Z 36011KT 22/13 A2991 RMK A01 T02180126  RH  058%=      5-min Rain = 0
KNOR 252115Z 35011G17KT 22/13 A2991 RMK A01 T02160125  RH  059%=      5-min Rain = 0
KNOR 252120Z 36010G15KT 22/13 A2991 RMK A01 T02160127  RH  059%=      5-min Rain = 0
KNOR 252125Z 01013G19KT 22/13 A2991 RMK A01 T02150125  RH  059%=      5-min Rain = 0
KNOR 252130Z 36012G17KT 21/12 A2991 RMK A01 T02130124  RH  059%=      5-min Rain = 0
KNOR 252135Z 00012KT 21/12 A2991 RMK A01 T02130124  RH  059%=      5-min Rain = 0
KNOR 252140Z 01011KT 21/13 A2991 RMK A01 T02140125  RH  059%=      5-min Rain = 0
KNOR 252145Z 01013KT 21/12 A2991 RMK A01 T02120123  RH  059%=      5-min Rain = 0
KNOR 252150Z 01012G18KT 21/12 A2991 RMK A01 T02110123  RH  059%=      5-min Rain = 0
KNOR 252155Z 36012KT 21/12 A2991 RMK A01 T02090123  RH  060%=      5-min Rain = 0
KNOR 252200Z 36011KT 21/13 A2992 RMK A01 T02110125  RH  060%=      5-min Rain = 0
KNOR 252205Z 01012KT 21/12 A2992 RMK A01 T02100124  RH  060%=      5-min Rain = 0
KNOR 252210Z 00012KT 21/12 A2992 RMK A01 T02110122  RH  059%=      5-min Rain = 0
KNOR 252215Z 35011KT 21/12 A2992 RMK A01 T02100122  RH  059%=      5-min Rain = 0
KNOR 252220Z 00011G17KT 21/13 A2992 RMK A01 T02120125  RH  060%=      5-min Rain = 0
KNOR 252225Z 35011G16KT 21/12 A2992 RMK A01 T02090122  RH  060%=      5-min Rain = 0
KNOR 252230Z 36009KT 21/12 A2992 RMK A01 T02090122  RH  060%=      5-min Rain = 0
KNOR 252235Z 00011KT 21/12 A2992 RMK A01 T02090123  RH  060%=      5-min Rain = 0
KNOR 252240Z 01012KT 21/12 A2992 RMK A01 T02090124  RH  060%=      5-min Rain = 0
KNOR 252245Z 00011KT 21/12 A2992 RMK A01 T02090123  RH  060%=      5-min Rain = 0
KNOR 252250Z 01010KT 21/12 A2992 RMK A01 T02090122  RH  060%=      5-min Rain = 0
KNOR 252255Z 01012KT 21/12 A2992 RMK A01 T02070120  RH  059%=      5-min Rain = 0
KNOR 252300Z 36009KT 21/12 A2992 RMK A01 T02070123  RH  061%=      5-min Rain = 0
KNOR 252305Z 36011KT 21/12 A2992 RMK A01 T02070120  RH  060%=      5-min Rain = 0
KNOR 252310Z 36008KT 21/12 A2992 RMK A01 T02100124  RH  060%=      5-min Rain = 0
KNOR 252315Z 35008KT 21/12 A2992 RMK A01 T02120124  RH  060%=      5-min Rain = 0
KNOR 252320Z 00010G15KT 21/12 A2992 RMK A01 T02130123  RH  059%=      5-min Rain = 0
KNOR 252325Z 00011KT 22/12 A2992 RMK A01 T02160123  RH  058%=      5-min Rain = 0
KNOR 252330Z 00009G14KT 21/12 A2992 RMK A01 T02110123  RH  059%=      5-min Rain = 0
KNOR 252335Z 36011G16KT 21/12 A2992 RMK A01 T02080122  RH  060%=      5-min Rain = 0
KNOR 252340Z 35012G18KT 21/12 A2992 RMK A01 T02050116  RH  059%=      5-min Rain = 0
KNOR 252345Z 35011G16KT 21/12 A2992 RMK A01 T02070117  RH  058%=      5-min Rain = 0
KNOR 252350Z 35012KT 21/12 A2992 RMK A01 T02120116  RH  056%=      5-min Rain = 0
KNOR 252355Z 00013KT 21/12 A2992 RMK A01 T02110115  RH  056%=      5-min Rain = 0
KNOR 260000Z 35011G16KT 21/11 A2992 RMK A01 T02090114  RH  057%=      5-min Rain = 0
KNOR 260005Z 35010G15KT 21/12 A2992 RMK A01 T02080115  RH  057%=      5-min Rain = 0
KNOR 260010Z 35009KT 21/12 A2993 RMK A01 T02070115  RH  057%=      5-min Rain = 0
KNOR 260015Z 35011G16KT 21/12 A2993 RMK A01 T02070115  RH  058%=      5-min Rain = 0
KNOR 260020Z 35012G17KT 21/11 A2993 RMK A01 T02050113  RH  057%=      5-min Rain = 0
KNOR 260025Z 34012G19KT 20/11 A2993 RMK A01 T02040112  RH  057%=      5-min Rain = 0
KNOR 260030Z 35011KT 20/11 A2994 RMK A01 T02030111  RH  057%=      5-min Rain = 0
KNOR 260035Z 34011G16KT 20/11 A2994 RMK A01 T02020111  RH  058%=      5-min Rain = 0
KNOR 260040Z 35012G17KT 20/11 A2994 RMK A01 T02010108  RH  057%=      5-min Rain = 0
KNOR 260045Z 35010KT 20/11 A2994 RMK A01 T02000109  RH  058%=      5-min Rain = 0
KNOR 260050Z 34011KT 20/11 A2994 RMK A01 T02000107  RH  057%=      5-min Rain = 0
KNOR 260055Z 33011G16KT 20/11 A2994 RMK A01 T02000107  RH  057%=      5-min Rain = 0
KNOR 260100Z 33009G14KT 20/11 A2995 RMK A01 T01980109  RH  059%=      5-min Rain = 0
KNOR 260105Z 33009KT 20/11 A2995 RMK A01 T01970109  RH  059%=      5-min Rain = 0
KNOR 260110Z 34009G14KT 20/11 A2995 RMK A01 T01950109  RH  059%=      5-min Rain = 0
KNOR 260115Z 34008KT 19/11 A2995 RMK A01 T01940109  RH  060%=      5-min Rain = 0
KNOR 260120Z 33008G13KT 19/11 A2995 RMK A01 T01940109  RH  060%=      5-min Rain = 0
KNOR 260125Z 34007KT 19/11 A2995 RMK A01 T01930109  RH  060%=      5-min Rain = 0
KNOR 260130Z 33007KT 19/11 A2995 RMK A01 T01920110  RH  061%=      5-min Rain = 0
KNOR 260135Z 33006KT 19/11 A2995 RMK A01 T01900113  RH  063%=      5-min Rain = 0
KNOR 260140Z 33005KT 19/12 A2995 RMK A01 T01870116  RH  066%=      5-min Rain = 0
KNOR 260145Z 35005KT 18/12 A2995 RMK A01 T01810123  RH  071%=      5-min Rain = 0
KNOR 260150Z 35005KT 18/13 A2995 RMK A01 T01750127  RH  076%=      5-min Rain = 0.01
KNOR 260155Z 34005KT 17/13 A2995 RMK A01 T01710130  RH  080%=      5-min Rain = 0
KNOR 260200Z 34005KT 17/13 A2995 RMK A01 T01700130  RH  081%=      5-min Rain = 0
KNOR 260205Z 35006KT 17/13 A2995 RMK A01 T01690130  RH  081%=      5-min Rain = 0
KNOR 260210Z 35006KT 17/13 A2995 RMK A01 T01690129  RH  081%=      5-min Rain = 0
KNOR 260215Z 35005KT 17/13 A2995 RMK A01 T01690128  RH  080%=      5-min Rain = 0
KNOR 260220Z 35005KT 17/13 A2995 RMK A01 T01680129  RH  081%=      5-min Rain = 0
KNOR 260225Z 36006KT 17/13 A2995 RMK A01 T01680129  RH  081%=      5-min Rain = 0
KNOR 260230Z 00006KT 17/13 A2995 RMK A01 T01700127  RH  079%=      5-min Rain = 0
KNOR 260235Z 01007KT 17/13 A2996 RMK A01 T01710128  RH  079%=      5-min Rain = 0
KNOR 260240Z 03008KT 17/13 A2996 RMK A01 T01690128  RH  080%=      5-min Rain = 0
KNOR 260245Z 02008KT 17/13 A2996 RMK A01 T01690127  RH  079%=      5-min Rain = 0
KNOR 260250Z 03008G13KT 17/13 A2996 RMK A01 T01680127  RH  080%=      5-min Rain = 0
KNOR 260255Z 03009G14KT 17/13 A2996 RMK A01 T01680125  RH  079%=      5-min Rain = 0
KNOR 260300Z 02009KT 17/12 A2997 RMK A01 T01670124  RH  079%=      5-min Rain = 0
KNOR 260305Z 01008KT 17/13 A2998 RMK A01 T01650125  RH  080%=      5-min Rain = 0
KNOR 260310Z 00008KT 17/12 A2998 RMK A01 T01650124  RH  080%=      5-min Rain = 0
KNOR 260315Z 00008KT 17/12 A2998 RMK A01 T01660120  RH  077%=      5-min Rain = 0
KNOR 260320Z 00008KT 17/12 A2999 RMK A01 T01650118  RH  076%=      5-min Rain = 0
KNOR 260325Z 00008KT 17/12 A2999 RMK A01 T01650118  RH  076%=      5-min Rain = 0
KNOR 260330Z 00008KT 16/12 A2999 RMK A01 T01640118  RH  077%=      5-min Rain = 0
KNOR 260335Z 00007KT 16/12 A2999 RMK A01 T01630118  RH  077%=      5-min Rain = 0
KNOR 260340Z 36006KT 16/12 A30 RMK A01 T01620118  RH  078%=      5-min Rain = 0
KNOR 260345Z 35005KT 16/12 A30 RMK A01 T01620119  RH  078%=      5-min Rain = 0
KNOR 260350Z 34005KT 16/12 A30 RMK A01 T01620120  RH  079%=      5-min Rain = 0
KNOR 260355Z 33005KT 16/12 A30 RMK A01 T01610121  RH  080%=      5-min Rain = 0
KNOR 260400Z 33005KT 16/12 A30 RMK A01 T01600123  RH  081%=      5-min Rain = 0
KNOR 260405Z 33004KT 16/12 A2999 RMK A01 T01600124  RH  082%=      5-min Rain = 0
KNOR 260410Z 33003KT 16/12 A30 RMK A01 T01590124  RH  083%=      5-min Rain = 0
KNOR 260415Z 33003KT 16/13 A30 RMK A01 T01590125  RH  084%=      5-min Rain = 0
KNOR 260420Z 34003KT 16/13 A30 RMK A01 T01590125  RH  084%=      5-min Rain = 0
KNOR 260425Z 35003KT 16/13 A30 RMK A01 T01590125  RH  083%=      5-min Rain = 0
KNOR 260430Z 35003KT 16/12 A30 RMK A01 T01590124  RH  083%=      5-min Rain = 0
KNOR 260435Z 35004KT 16/13 A30 RMK A01 T01600125  RH  083%=      5-min Rain = 0
KNOR 260440Z 35004KT 16/12 A30 RMK A01 T01600124  RH  082%=      5-min Rain = 0
KNOR 260445Z 36005KT 16/12 A30 RMK A01 T01600123  RH  081%=      5-min Rain = 0
KNOR 260450Z 35004KT 16/12 A30 RMK A01 T01600122  RH  081%=      5-min Rain = 0
KNOR 260455Z 34004KT 16/12 A30 RMK A01 T01600123  RH  082%=      5-min Rain = 0

Page generated in 0.0357 seconds.